KLM121 LGAV-LIRF
Flight info
| Callsign | KLM121 |
|---|---|
| Flight time | 1h 56m |
| Altitude | 36000 |
| Route | KOR UL53 IXONI DCT OLGAT DCT TOPNO DCT DOGUS DCT EKTOL DCT AMSOR DCT IPKAM DCT TEA DCT SIPRO DCT LAT |
| Aircraft | B738/M-SDE2E3FGHIRWXY/LB1 |
Departure
| Time | 2026-05-04 05:37 |
|---|---|
| Airport | Athens Eleftherios Venizelos International Airport (LGAV) |
Arrival
| Time | 2026-05-04 07:33 |
|---|---|
| Airport | Rome–Fiumicino Leonardo da Vinci International Airport (LIRF) |
| Time | Latitude | Longitude | Altitude | Speed | Heading |
|---|---|---|---|---|---|
| 2026-05-04 04:49 | 37.93692 | 23.94927 | 300 ft | 0 kts | 306° |
| 2026-05-04 05:25 | 37.93686 | 23.94938 | 302 ft | 4 kts | 304° |
| 2026-05-04 05:25 | 37.93671 | 23.94967 | 302 ft | 4 kts | 296° |
| 2026-05-04 05:25 | 37.93662 | 23.94998 | 299 ft | 4 kts | 273° |
| 2026-05-04 05:26 | 37.93667 | 23.95024 | 299 ft | 2 kts | 218° |
| 2026-05-04 05:26 | 37.93668 | 23.95025 | 299 ft | 1 kts | 217° |
| 2026-05-04 05:31 | 37.93383 | 23.94982 | 298 ft | 11 kts | 138° |
| 2026-05-04 05:31 | 37.93317 | 23.94966 | 299 ft | 10 kts | 216° |
| 2026-05-04 05:32 | 37.93261 | 23.94912 | 299 ft | 10 kts | 217° |
| 2026-05-04 05:32 | 37.93206 | 23.94860 | 300 ft | 10 kts | 217° |
| 2026-05-04 05:32 | 37.93150 | 23.94807 | 302 ft | 10 kts | 217° |
| 2026-05-04 05:33 | 37.93031 | 23.94692 | 301 ft | 11 kts | 216° |
| 2026-05-04 05:33 | 37.92971 | 23.94636 | 301 ft | 11 kts | 216° |
| 2026-05-04 05:33 | 37.92913 | 23.94581 | 301 ft | 10 kts | 217° |
| 2026-05-04 05:33 | 37.92856 | 23.94527 | 302 ft | 11 kts | 217° |
| 2026-05-04 05:34 | 37.92791 | 23.94466 | 303 ft | 13 kts | 216° |
| 2026-05-04 05:34 | 37.92715 | 23.94395 | 301 ft | 14 kts | 217° |
| 2026-05-04 05:34 | 37.92638 | 23.94322 | 305 ft | 13 kts | 217° |
| 2026-05-04 05:34 | 37.92561 | 23.94288 | 303 ft | 11 kts | 151° |
| 2026-05-04 05:35 | 37.92512 | 23.94364 | 306 ft | 11 kts | 128° |
| 2026-05-04 05:35 | 37.92487 | 23.94445 | 309 ft | 9 kts | 73° |
| 2026-05-04 05:35 | 37.92526 | 23.94490 | 308 ft | 7 kts | 36° |
| 2026-05-04 05:35 | 37.92571 | 23.94533 | 305 ft | 12 kts | 37° |
| 2026-05-04 05:36 | 37.92672 | 23.94629 | 304 ft | 33 kts | 37° |
| 2026-05-04 05:36 | 37.93044 | 23.94982 | 294 ft | 99 kts | 37° |
| 2026-05-04 05:36 | 37.93745 | 23.95647 | 283 ft | 151 kts | 37° |
| 2026-05-04 05:36 | 37.94670 | 23.96551 | 537 ft | 176 kts | 37° |
| 2026-05-04 05:37 | 37.95691 | 23.97537 | 1072 ft | 192 kts | 37° |
| 2026-05-04 05:37 | 37.96754 | 23.98580 | 1894 ft | 190 kts | 36° |
| 2026-05-04 05:37 | 37.97786 | 23.99629 | 2637 ft | 194 kts | 37° |
| 2026-05-04 05:38 | 38.00164 | 24.01915 | 3270 ft | 231 kts | 33° |
| 2026-05-04 05:38 | 38.01476 | 24.03122 | 3907 ft | 235 kts | 33° |
| 2026-05-04 05:38 | 38.02790 | 24.04357 | 4668 ft | 234 kts | 33° |
| 2026-05-04 05:38 | 38.04092 | 24.05597 | 5431 ft | 234 kts | 33° |
| 2026-05-04 05:39 | 38.05382 | 24.06831 | 6123 ft | 236 kts | 33° |
| 2026-05-04 05:39 | 38.07991 | 24.09361 | 7460 ft | 242 kts | 37° |
| 2026-05-04 05:39 | 38.08975 | 24.11211 | 7815 ft | 268 kts | 66° |
| 2026-05-04 05:40 | 38.08540 | 24.16057 | 8985 ft | 302 kts | 118° |
| 2026-05-04 05:40 | 38.07077 | 24.18016 | 9585 ft | 314 kts | 145° |
| 2026-05-04 05:40 | 38.05043 | 24.19058 | 10162 ft | 320 kts | 172° |
| 2026-05-04 05:41 | 38.02790 | 24.18926 | 10378 ft | 334 kts | 200° |
| 2026-05-04 05:41 | 38.00764 | 24.17479 | 10529 ft | 340 kts | 230° |
| 2026-05-04 05:41 | 37.99437 | 24.14995 | 10698 ft | 346 kts | 250° |
| 2026-05-04 05:41 | 37.98539 | 24.12093 | 10834 ft | 361 kts | 256° |
| 2026-05-04 05:42 | 37.97713 | 24.09013 | 11035 ft | 375 kts | 256° |
| 2026-05-04 05:42 | 37.96847 | 24.05854 | 11452 ft | 383 kts | 255° |
| 2026-05-04 05:42 | 37.96240 | 24.03746 | 11792 ft | 386 kts | 254° |
| 2026-05-04 05:42 | 37.95280 | 24.00561 | 12402 ft | 388 kts | 253° |
| 2026-05-04 05:43 | 37.94283 | 23.97369 | 13011 ft | 391 kts | 252° |
| 2026-05-04 05:43 | 37.93264 | 23.94166 | 13631 ft | 394 kts | 252° |
| 2026-05-04 05:43 | 37.92231 | 23.90939 | 14197 ft | 397 kts | 252° |
| 2026-05-04 05:45 | 37.89535 | 23.67141 | 18103 ft | 403 kts | 278° |
| 2026-05-04 05:45 | 37.89720 | 23.63593 | 18644 ft | 405 kts | 278° |
| 2026-05-04 05:47 | 37.90949 | 23.38397 | 22072 ft | 413 kts | 280° |
| 2026-05-04 05:47 | 37.91122 | 23.34761 | 22534 ft | 414 kts | 280° |
| 2026-05-04 05:47 | 37.91295 | 23.31110 | 22946 ft | 416 kts | 280° |
| 2026-05-04 05:48 | 37.91467 | 23.27444 | 23352 ft | 418 kts | 280° |
| 2026-05-04 05:48 | 37.91639 | 23.23761 | 23760 ft | 420 kts | 281° |
| 2026-05-04 05:48 | 37.91810 | 23.20064 | 24095 ft | 421 kts | 281° |
| 2026-05-04 05:48 | 37.91981 | 23.16347 | 24411 ft | 423 kts | 280° |
| 2026-05-04 05:49 | 37.92151 | 23.12624 | 24716 ft | 425 kts | 280° |
| 2026-05-04 05:49 | 37.92321 | 23.08876 | 24939 ft | 428 kts | 281° |
| 2026-05-04 05:49 | 37.92490 | 23.05141 | 25141 ft | 432 kts | 280° |
| 2026-05-04 05:49 | 37.92660 | 23.01339 | 25453 ft | 432 kts | 280° |
| 2026-05-04 05:51 | 38.01265 | 22.78597 | 27405 ft | 418 kts | 309° |
| 2026-05-04 05:51 | 38.02929 | 22.75585 | 27730 ft | 417 kts | 309° |
| 2026-05-04 05:52 | 38.04588 | 22.72565 | 28129 ft | 416 kts | 308° |
| 2026-05-04 05:52 | 38.06234 | 22.69561 | 28536 ft | 414 kts | 308° |
| 2026-05-04 05:52 | 38.07873 | 22.66572 | 28909 ft | 413 kts | 308° |
| 2026-05-04 05:52 | 38.09511 | 22.63583 | 29261 ft | 412 kts | 308° |
| 2026-05-04 05:53 | 38.11145 | 22.60599 | 29621 ft | 411 kts | 308° |
| 2026-05-04 05:54 | 38.22445 | 22.39891 | 31872 ft | 402 kts | 308° |
| 2026-05-04 05:55 | 38.24037 | 22.36964 | 32136 ft | 402 kts | 308° |
| 2026-05-04 05:55 | 38.25626 | 22.34038 | 32379 ft | 402 kts | 308° |
| 2026-05-04 05:55 | 38.27193 | 22.31152 | 32654 ft | 401 kts | 308° |
| 2026-05-04 05:55 | 38.28771 | 22.28242 | 32946 ft | 400 kts | 308° |
| 2026-05-04 05:56 | 38.30369 | 22.25293 | 33238 ft | 399 kts | 308° |
| 2026-05-04 05:56 | 38.31946 | 22.22444 | 33409 ft | 399 kts | 310° |
| 2026-05-04 05:56 | 38.33649 | 22.19651 | 33634 ft | 398 kts | 311° |
| 2026-05-04 05:56 | 38.35380 | 22.16895 | 33915 ft | 398 kts | 312° |
| 2026-05-04 05:57 | 38.37110 | 22.14164 | 34252 ft | 395 kts | 312° |
| 2026-05-04 05:57 | 38.38835 | 22.11438 | 34434 ft | 395 kts | 311° |
| 2026-05-04 05:57 | 38.40558 | 22.08705 | 34602 ft | 396 kts | 311° |
| 2026-05-04 05:57 | 38.42280 | 22.05962 | 34754 ft | 397 kts | 311° |
| 2026-05-04 05:58 | 38.44009 | 22.03205 | 34910 ft | 398 kts | 311° |
| 2026-05-04 05:58 | 38.45738 | 22.00441 | 35064 ft | 399 kts | 311° |
| 2026-05-04 05:58 | 38.47464 | 21.97676 | 35243 ft | 399 kts | 311° |
| 2026-05-04 05:58 | 38.49195 | 21.94898 | 35366 ft | 400 kts | 311° |
| 2026-05-04 05:59 | 38.52667 | 21.89315 | 35608 ft | 402 kts | 311° |
| 2026-05-04 05:59 | 38.54401 | 21.86523 | 35776 ft | 401 kts | 311° |
| 2026-05-04 05:59 | 38.56135 | 21.83728 | 35924 ft | 401 kts | 311° |
| 2026-05-04 06:00 | 38.57870 | 21.80928 | 36080 ft | 402 kts | 311° |
| 2026-05-04 06:00 | 38.59596 | 21.78139 | 36125 ft | 400 kts | 311° |
| 2026-05-04 06:00 | 38.63049 | 21.72558 | 36177 ft | 400 kts | 311° |
| 2026-05-04 06:01 | 38.66511 | 21.66952 | 36193 ft | 402 kts | 311° |
| 2026-05-04 06:03 | 38.80475 | 21.44238 | 36190 ft | 406 kts | 310° |
| 2026-05-04 06:05 | 38.96053 | 21.18706 | 36198 ft | 403 kts | 311° |
| 2026-05-04 06:06 | 38.99499 | 21.13032 | 36155 ft | 402 kts | 310° |
| 2026-05-04 06:06 | 39.02929 | 21.07371 | 36177 ft | 401 kts | 310° |
| 2026-05-04 06:07 | 39.06353 | 21.01713 | 36189 ft | 400 kts | 310° |
| 2026-05-04 06:07 | 39.09772 | 20.96053 | 36186 ft | 400 kts | 310° |
| 2026-05-04 06:08 | 39.13185 | 20.90393 | 36185 ft | 400 kts | 310° |
| 2026-05-04 06:08 | 39.16580 | 20.84751 | 36184 ft | 400 kts | 310° |
| 2026-05-04 06:09 | 39.19994 | 20.79069 | 36158 ft | 401 kts | 310° |
| 2026-05-04 06:11 | 39.33633 | 20.56266 | 36169 ft | 402 kts | 310° |
| 2026-05-04 06:13 | 39.47269 | 20.33303 | 36156 ft | 404 kts | 310° |
| 2026-05-04 06:14 | 39.59226 | 20.13030 | 36123 ft | 405 kts | 310° |
| 2026-05-04 06:15 | 39.62642 | 20.07215 | 36146 ft | 405 kts | 310° |
| 2026-05-04 06:15 | 39.66054 | 20.01396 | 36160 ft | 405 kts | 310° |
| 2026-05-04 06:16 | 39.69467 | 19.95563 | 36158 ft | 406 kts | 310° |
| 2026-05-04 06:16 | 39.72882 | 19.89717 | 36152 ft | 406 kts | 310° |
| 2026-05-04 06:17 | 39.76293 | 19.83868 | 36156 ft | 406 kts | 310° |
| 2026-05-04 06:17 | 39.79705 | 19.78005 | 36125 ft | 407 kts | 309° |
| 2026-05-04 06:18 | 39.83093 | 19.72173 | 36136 ft | 407 kts | 309° |
| 2026-05-04 06:20 | 39.96728 | 19.48591 | 36140 ft | 408 kts | 309° |
| 2026-05-04 06:21 | 40.05241 | 19.33777 | 36142 ft | 408 kts | 309° |
| 2026-05-04 06:22 | 40.08639 | 19.27844 | 36140 ft | 408 kts | 309° |
| 2026-05-04 06:25 | 40.28811 | 18.83411 | 36145 ft | 414 kts | 292° |
| 2026-05-04 06:26 | 40.30639 | 18.76252 | 36117 ft | 414 kts | 292° |
| 2026-05-04 06:26 | 40.32467 | 18.69113 | 36133 ft | 413 kts | 292° |
| 2026-05-04 06:27 | 40.37026 | 18.51265 | 36144 ft | 413 kts | 292° |
| 2026-05-04 06:28 | 40.38841 | 18.44123 | 36147 ft | 412 kts | 292° |
| 2026-05-04 06:28 | 40.40638 | 18.37029 | 36141 ft | 412 kts | 292° |
| 2026-05-04 06:29 | 40.42439 | 18.29900 | 36141 ft | 411 kts | 292° |
| 2026-05-04 06:29 | 40.44232 | 18.22778 | 36155 ft | 412 kts | 292° |
| 2026-05-04 06:30 | 40.46031 | 18.15619 | 36152 ft | 414 kts | 292° |
| 2026-05-04 06:30 | 40.47538 | 18.09601 | 36150 ft | 415 kts | 291° |
| 2026-05-04 06:31 | 40.49326 | 18.02442 | 36151 ft | 415 kts | 291° |
| 2026-05-04 06:31 | 40.51119 | 17.95238 | 36154 ft | 415 kts | 291° |
| 2026-05-04 06:33 | 40.58245 | 17.66396 | 36147 ft | 414 kts | 291° |
| 2026-05-04 06:34 | 40.60012 | 17.59189 | 36153 ft | 414 kts | 291° |
| 2026-05-04 06:34 | 40.61776 | 17.51972 | 36156 ft | 414 kts | 291° |
| 2026-05-04 06:36 | 40.68783 | 17.23087 | 36152 ft | 414 kts | 290° |
| 2026-05-04 06:37 | 40.70526 | 17.15844 | 36161 ft | 415 kts | 290° |
| 2026-05-04 06:37 | 40.72255 | 17.08638 | 36157 ft | 415 kts | 290° |
| 2026-05-04 06:38 | 40.73995 | 17.01365 | 36143 ft | 415 kts | 290° |
| 2026-05-04 06:40 | 40.80907 | 16.72239 | 36150 ft | 416 kts | 290° |
| 2026-05-04 06:40 | 40.82626 | 16.64940 | 36152 ft | 416 kts | 289° |
| 2026-05-04 06:41 | 40.84340 | 16.57634 | 36148 ft | 417 kts | 289° |
| 2026-05-04 06:41 | 40.86052 | 16.50314 | 36154 ft | 417 kts | 289° |
| 2026-05-04 06:42 | 40.87761 | 16.42985 | 36149 ft | 418 kts | 289° |
| 2026-05-04 06:44 | 40.94555 | 16.13615 | 36152 ft | 419 kts | 289° |
| 2026-05-04 06:44 | 40.96064 | 16.06156 | 36156 ft | 420 kts | 285° |
| 2026-05-04 06:45 | 40.97306 | 15.98587 | 36139 ft | 421 kts | 284° |
| 2026-05-04 06:45 | 40.98548 | 15.91005 | 36156 ft | 421 kts | 284° |
| 2026-05-04 06:46 | 40.99809 | 15.83443 | 36155 ft | 421 kts | 284° |
| 2026-05-04 06:46 | 41.01074 | 15.75875 | 36158 ft | 421 kts | 284° |
| 2026-05-04 06:48 | 41.06120 | 15.45594 | 36170 ft | 421 kts | 283° |
| 2026-05-04 06:50 | 41.11086 | 15.15351 | 36174 ft | 420 kts | 283° |
| 2026-05-04 06:51 | 41.12322 | 15.07772 | 36176 ft | 420 kts | 283° |
| 2026-05-04 06:51 | 41.13554 | 15.00191 | 36181 ft | 421 kts | 283° |
| 2026-05-04 06:52 | 41.14784 | 14.92593 | 36188 ft | 421 kts | 283° |
| 2026-05-04 06:52 | 41.16006 | 14.84992 | 36186 ft | 422 kts | 282° |
| 2026-05-04 06:53 | 41.17209 | 14.77363 | 36183 ft | 423 kts | 282° |
| 2026-05-04 06:53 | 41.18409 | 14.69718 | 36186 ft | 423 kts | 282° |
| 2026-05-04 06:54 | 41.19611 | 14.62058 | 36188 ft | 424 kts | 282° |
| 2026-05-04 06:54 | 41.20823 | 14.54385 | 36181 ft | 425 kts | 282° |
| 2026-05-04 06:55 | 41.22035 | 14.46693 | 36190 ft | 425 kts | 282° |
| 2026-05-04 06:55 | 41.23238 | 14.39009 | 36191 ft | 425 kts | 282° |
| 2026-05-04 06:57 | 41.28028 | 14.08052 | 34276 ft | 433 kts | 281° |
| 2026-05-04 06:58 | 41.28629 | 14.04128 | 33493 ft | 434 kts | 281° |
| 2026-05-04 06:58 | 41.29279 | 14.00253 | 32748 ft | 436 kts | 286° |
| 2026-05-04 06:58 | 41.30326 | 13.96469 | 32013 ft | 437 kts | 294° |
| 2026-05-04 06:58 | 41.31756 | 13.92897 | 31248 ft | 440 kts | 302° |
| 2026-05-04 06:59 | 41.33497 | 13.89528 | 30490 ft | 443 kts | 304° |
| 2026-05-04 06:59 | 41.35278 | 13.86162 | 29568 ft | 447 kts | 304° |
| 2026-05-04 06:59 | 41.37066 | 13.82765 | 28633 ft | 449 kts | 304° |
| 2026-05-04 06:59 | 41.38843 | 13.79343 | 27929 ft | 447 kts | 304° |
| 2026-05-04 07:01 | 41.46480 | 13.53666 | 23518 ft | 416 kts | 279° |
| 2026-05-04 07:01 | 41.46936 | 13.49885 | 22858 ft | 410 kts | 279° |
| 2026-05-04 07:02 | 41.47394 | 13.46154 | 22240 ft | 404 kts | 279° |
| 2026-05-04 07:02 | 41.47849 | 13.42483 | 21657 ft | 398 kts | 279° |
| 2026-05-04 07:02 | 41.48301 | 13.38855 | 21078 ft | 395 kts | 279° |
| 2026-05-04 07:02 | 41.48751 | 13.35256 | 20499 ft | 391 kts | 279° |
| 2026-05-04 07:03 | 41.49198 | 13.31676 | 19947 ft | 395 kts | 278° |
| 2026-05-04 07:03 | 41.49656 | 13.27997 | 19379 ft | 409 kts | 278° |
| 2026-05-04 07:03 | 41.50124 | 13.24233 | 18742 ft | 410 kts | 278° |
| 2026-05-04 07:03 | 41.50587 | 13.20500 | 18089 ft | 405 kts | 278° |
| 2026-05-04 07:04 | 41.51042 | 13.16820 | 17461 ft | 399 kts | 278° |
| 2026-05-04 07:04 | 41.51487 | 13.13212 | 17142 ft | 386 kts | 278° |
| 2026-05-04 07:04 | 41.51907 | 13.09802 | 16980 ft | 370 kts | 278° |
| 2026-05-04 07:04 | 41.52316 | 13.06468 | 16810 ft | 357 kts | 278° |
| 2026-05-04 07:05 | 41.52708 | 13.03262 | 16656 ft | 343 kts | 278° |
| 2026-05-04 07:05 | 41.53085 | 13.00178 | 16513 ft | 331 kts | 278° |
| 2026-05-04 07:05 | 41.53447 | 12.97199 | 16378 ft | 319 kts | 278° |
| 2026-05-04 07:05 | 41.53798 | 12.94319 | 16251 ft | 308 kts | 278° |
| 2026-05-04 07:06 | 41.55775 | 12.89539 | 15965 ft | 295 kts | 314° |
| 2026-05-04 07:06 | 41.57304 | 12.87615 | 15825 ft | 310 kts | 317° |
| 2026-05-04 07:06 | 41.58938 | 12.85654 | 15632 ft | 320 kts | 317° |
| 2026-05-04 07:07 | 41.60603 | 12.83649 | 15425 ft | 323 kts | 316° |
| 2026-05-04 07:08 | 41.71815 | 12.69683 | 14056 ft | 310 kts | 316° |
| 2026-05-04 07:09 | 41.73385 | 12.67713 | 13855 ft | 309 kts | 316° |
| 2026-05-04 07:09 | 41.74954 | 12.65741 | 13649 ft | 308 kts | 316° |
| 2026-05-04 07:09 | 41.76515 | 12.63778 | 13460 ft | 307 kts | 316° |
| 2026-05-04 07:09 | 41.78074 | 12.61817 | 13266 ft | 307 kts | 316° |
| 2026-05-04 07:10 | 41.79626 | 12.59863 | 13080 ft | 306 kts | 316° |
| 2026-05-04 07:10 | 41.81164 | 12.57899 | 12892 ft | 305 kts | 314° |
| 2026-05-04 07:12 | 41.91796 | 12.45291 | 11656 ft | 273 kts | 342° |
| 2026-05-04 07:12 | 41.93611 | 12.44554 | 11466 ft | 271 kts | 342° |
| 2026-05-04 07:12 | 41.95413 | 12.43824 | 11320 ft | 272 kts | 342° |
| 2026-05-04 07:12 | 41.97233 | 12.43080 | 11159 ft | 275 kts | 342° |
| 2026-05-04 07:13 | 41.99074 | 12.42324 | 10993 ft | 278 kts | 342° |
| 2026-05-04 07:13 | 42.00917 | 12.41563 | 10812 ft | 276 kts | 342° |
| 2026-05-04 07:13 | 42.02746 | 12.40804 | 10642 ft | 274 kts | 341° |
| 2026-05-04 07:14 | 42.09962 | 12.37801 | 9942 ft | 264 kts | 341° |
| 2026-05-04 07:14 | 42.11693 | 12.37080 | 9789 ft | 258 kts | 341° |
| 2026-05-04 07:15 | 42.13402 | 12.36365 | 9623 ft | 257 kts | 341° |
| 2026-05-04 07:15 | 42.15108 | 12.35650 | 9463 ft | 256 kts | 341° |
| 2026-05-04 07:15 | 42.16802 | 12.34938 | 9313 ft | 255 kts | 341° |
| 2026-05-04 07:15 | 42.18499 | 12.34225 | 9168 ft | 257 kts | 341° |
| 2026-05-04 07:16 | 42.20213 | 12.33502 | 9075 ft | 259 kts | 341° |
| 2026-05-04 07:16 | 42.21939 | 12.32775 | 8948 ft | 260 kts | 341° |
| 2026-05-04 07:16 | 42.23661 | 12.32049 | 8842 ft | 259 kts | 341° |
| 2026-05-04 07:16 | 42.25379 | 12.31324 | 8733 ft | 258 kts | 341° |
| 2026-05-04 07:17 | 42.26516 | 12.30844 | 8665 ft | 258 kts | 341° |
| 2026-05-04 07:17 | 42.28809 | 12.29879 | 8516 ft | 257 kts | 341° |
| 2026-05-04 07:17 | 42.29939 | 12.29403 | 8448 ft | 257 kts | 341° |
| 2026-05-04 07:17 | 42.31644 | 12.28685 | 8350 ft | 256 kts | 341° |
| 2026-05-04 07:18 | 42.33346 | 12.27969 | 8248 ft | 256 kts | 341° |
| 2026-05-04 07:18 | 42.35598 | 12.27019 | 8104 ft | 256 kts | 341° |
| 2026-05-04 07:18 | 42.36745 | 12.26532 | 8031 ft | 255 kts | 341° |
| 2026-05-04 07:18 | 42.38991 | 12.25583 | 7909 ft | 256 kts | 340° |
| 2026-05-04 07:19 | 42.40088 | 12.24935 | 7797 ft | 255 kts | 322° |
| 2026-05-04 07:19 | 42.41182 | 12.23138 | 7719 ft | 246 kts | 288° |
| 2026-05-04 07:19 | 42.41471 | 12.20899 | 7620 ft | 241 kts | 264° |
| 2026-05-04 07:19 | 42.41151 | 12.18701 | 7513 ft | 238 kts | 251° |
| 2026-05-04 07:20 | 42.40646 | 12.16563 | 7428 ft | 239 kts | 250° |
| 2026-05-04 07:20 | 42.40126 | 12.14418 | 7322 ft | 240 kts | 250° |
| 2026-05-04 07:20 | 42.39551 | 12.12299 | 7205 ft | 237 kts | 238° |
| 2026-05-04 07:20 | 42.38421 | 12.10813 | 7083 ft | 223 kts | 205° |
| 2026-05-04 07:22 | 42.29019 | 12.13292 | 6349 ft | 200 kts | 164° |
| 2026-05-04 07:22 | 42.27689 | 12.13852 | 6283 ft | 200 kts | 165° |
| 2026-05-04 07:23 | 42.26358 | 12.14415 | 6177 ft | 200 kts | 164° |
| 2026-05-04 07:23 | 42.25029 | 12.14975 | 6078 ft | 199 kts | 164° |
| 2026-05-04 07:23 | 42.23712 | 12.15536 | 6009 ft | 198 kts | 164° |
| 2026-05-04 07:23 | 42.22387 | 12.16098 | 5809 ft | 203 kts | 164° |
| 2026-05-04 07:24 | 42.21039 | 12.16670 | 5582 ft | 202 kts | 163° |
| 2026-05-04 07:24 | 42.19710 | 12.17232 | 5321 ft | 198 kts | 163° |
| 2026-05-04 07:24 | 42.18412 | 12.17781 | 5106 ft | 193 kts | 163° |
| 2026-05-04 07:24 | 42.17147 | 12.18315 | 4886 ft | 189 kts | 163° |
| 2026-05-04 07:25 | 42.15895 | 12.18840 | 4622 ft | 188 kts | 164° |
| 2026-05-04 07:26 | 42.07527 | 12.16968 | 3130 ft | 165 kts | 190° |
| 2026-05-04 07:27 | 42.06389 | 12.17004 | 3061 ft | 162 kts | 168° |
| 2026-05-04 07:27 | 42.05296 | 12.17421 | 2966 ft | 170 kts | 164° |
| 2026-05-04 07:27 | 42.04181 | 12.17899 | 2933 ft | 168 kts | 163° |
| 2026-05-04 07:27 | 42.03077 | 12.18386 | 2874 ft | 165 kts | 162° |
| 2026-05-04 07:28 | 42.01998 | 12.18852 | 2755 ft | 160 kts | 165° |
| 2026-05-04 07:28 | 42.00926 | 12.19292 | 2761 ft | 171 kts | 164° |
| 2026-05-04 07:28 | 41.99733 | 12.19789 | 2771 ft | 180 kts | 164° |
| 2026-05-04 07:28 | 41.98565 | 12.20281 | 2673 ft | 172 kts | 164° |
| 2026-05-04 07:29 | 41.97438 | 12.20756 | 2571 ft | 167 kts | 164° |
| 2026-05-04 07:29 | 41.96360 | 12.21208 | 2452 ft | 160 kts | 164° |
| 2026-05-04 07:29 | 41.95303 | 12.21652 | 2225 ft | 157 kts | 164° |
| 2026-05-04 07:29 | 41.94271 | 12.22083 | 2012 ft | 154 kts | 164° |
| 2026-05-04 07:30 | 41.93258 | 12.22509 | 1799 ft | 151 kts | 164° |
| 2026-05-04 07:30 | 41.92281 | 12.22920 | 1611 ft | 145 kts | 164° |
| 2026-05-04 07:30 | 41.91331 | 12.23317 | 1433 ft | 142 kts | 164° |
| 2026-05-04 07:30 | 41.90388 | 12.23714 | 1235 ft | 142 kts | 163° |
| 2026-05-04 07:31 | 41.89445 | 12.24112 | 1066 ft | 143 kts | 163° |
| 2026-05-04 07:31 | 41.88480 | 12.24517 | 856 ft | 147 kts | 162° |
| 2026-05-04 07:33 | 41.82741 | 12.26926 | 20 ft | 41 kts | 162° |
| 2026-05-04 07:33 | 41.82471 | 12.27040 | 11 ft | 40 kts | 162° |
| 2026-05-04 07:33 | 41.82205 | 12.27138 | 9 ft | 38 kts | 171° |
| 2026-05-04 07:33 | 41.81992 | 12.27118 | 7 ft | 16 kts | 192° |
| 2026-05-04 07:34 | 41.81906 | 12.27093 | 10 ft | 8 kts | 193° |
| 2026-05-04 07:34 | 41.81895 | 12.27089 | 11 ft | 0 kts | 193° |
| 2026-05-04 07:35 | 41.81892 | 12.27088 | 11 ft | 1 kts | 193° |
| 2026-05-04 07:35 | 41.81885 | 12.27086 | 11 ft | 1 kts | 193° |
| 2026-05-04 07:36 | 41.81878 | 12.27084 | 11 ft | 1 kts | 193° |
| 2026-05-04 07:36 | 41.81872 | 12.27082 | 12 ft | 1 kts | 193° |
| 2026-05-04 07:38 | 41.81133 | 12.27277 | 12 ft | 16 kts | 163° |
| 2026-05-04 07:38 | 41.81046 | 12.27245 | 12 ft | 14 kts | 244° |
| 2026-05-04 07:38 | 41.80966 | 12.27208 | 9 ft | 15 kts | 163° |
| 2026-05-04 07:38 | 41.80865 | 12.27216 | 8 ft | 15 kts | 191° |
| 2026-05-04 07:39 | 41.80780 | 12.27150 | 9 ft | 14 kts | 240° |
| 2026-05-04 07:39 | 41.80742 | 12.27014 | 8 ft | 17 kts | 250° |
| 2026-05-04 07:39 | 41.80700 | 12.26861 | 8 ft | 18 kts | 250° |
| 2026-05-04 07:39 | 41.80656 | 12.26705 | 11 ft | 18 kts | 250° |
| 2026-05-04 07:40 | 41.80610 | 12.26538 | 14 ft | 21 kts | 250° |
| 2026-05-04 07:40 | 41.80559 | 12.26355 | 16 ft | 21 kts | 250° |
| 2026-05-04 07:40 | 41.80500 | 12.26186 | 12 ft | 20 kts | 211° |
| 2026-05-04 07:40 | 41.80433 | 12.26167 | 13 ft | 5 kts | 198° |
| 2026-05-04 07:41 | 41.80389 | 12.26142 | 12 ft | 9 kts | 205° |
| 2026-05-04 07:41 | 41.80318 | 12.26097 | 12 ft | 15 kts | 205° |
| 2026-05-04 07:41 | 41.80207 | 12.26029 | 15 ft | 20 kts | 205° |
| 2026-05-04 07:41 | 41.80084 | 12.25954 | 15 ft | 19 kts | 204° |
| 2026-05-04 07:42 | 41.79965 | 12.25881 | 18 ft | 18 kts | 205° |
| 2026-05-04 07:42 | 41.79869 | 12.25798 | 17 ft | 16 kts | 254° |
| 2026-05-04 07:42 | 41.79907 | 12.25663 | 17 ft | 15 kts | 295° |
| 2026-05-04 07:42 | 41.79938 | 12.25551 | 16 ft | 12 kts | 251° |
| 2026-05-04 07:43 | 41.79898 | 12.25512 | 16 ft | 0 kts | 205° |
| 2026-05-04 07:43 | 41.79886 | 12.25505 | 17 ft | 6 kts | 205° |
| 2026-05-04 07:43 | 41.79819 | 12.25463 | 17 ft | 13 kts | 205° |
| 2026-05-04 07:43 | 41.79752 | 12.25420 | 17 ft | 9 kts | 206° |
| 2026-05-04 07:44 | 41.79703 | 12.25413 | 17 ft | 7 kts | 151° |
| 2026-05-04 07:44 | 41.79683 | 12.25448 | 17 ft | 3 kts | 122° |
| 2026-05-04 07:44 | 41.79678 | 12.25456 | 17 ft | 0 kts | 128° |